Raid du Morne Pitault-11 km le 13/01/2018

Recherche par Dossard : par Nom : par Club :

Place Dossard Nom Prenom Cat. Pl. Cat. Temps Club Sexe
1 537 GUENGANT Heathcliff V1 1 01:03:53 LES AIGLONS DU LAMENTIN M
2 434 DESHAGETTE Manuel V1 2 01:05:16 M
3 460 BELLEMARE Bruno V1 3 01:06:26 TEAM EDF MARTINIQUE M
4 438 AUSTER Xavier V1 4 01:07:45 LES BAROUDEURS M
5 586 CHEYLAN Stephan V1 5 01:12:34 M
6 546 AMBROSI Anatole SE 1 01:15:27 FRMP M
7 457 LANQUETIN Damien SE 2 01:15:41 M
8 481 PICHON Yannick V1 6 01:16:00 M
9 470 CROTET Mathieu SE 3 01:16:53 CROTET M
10 576 FLOBINUS Henrius V2 1 01:17:38 M
11 591 CACLIN Nicolas SE 4 01:18:39 GOLDEN STAR M
12 502 BOUTET Yoann SE 5 01:19:06 M
13 525 VINCENT Louison SE 6 01:19:22 M
14 567 BESSALA-SAMOUT Lionel SE 7 01:19:24 Marine Nationale M
15 521 ARZEL Mathilde SE 1 01:19:55 LES AIGLONS F
16 495 LUCE Mathieu V1 7 01:19:57 M
17 597 NAGOU Lionel V1 8 01:20:30 SAM HORIZON 2000 M
18 405 MOREAU Julien SE 8 01:21:20 M
19 465 MIT Arthur SE 9 01:22:23 M
20 479 IGLESIAS Teddy SE 10 01:22:43 RSMAM M
21 498 LÉNAFA Mitry V2 2 01:22:56 AIGLON DU LAMENTIN M
22 529 LEFEVRE Antoine SE 11 01:23:17 LES PETITES BRUNES M
23 578 CHARLERY Rodolphe V2 3 01:23:58 M
24 573 LETTY Stephane V2 4 01:23:59 Marine Nationale M
25 408 ZULMEA Pascal V1 9 01:24:07 GOLDEN STAR M
26 558 BORVAL Joęl V1 10 01:24:09 FJT CYCAS M
27 518 DELECROIX Florian SE 12 01:24:13 M
28 554 DANET Yann CA 1 01:24:25 Baroudeur M
29 574 DEROZE Maurille SE 13 01:24:43 FRMP M
30 588 PRIDEAU Martine SE 2 01:24:54 CTR F
31 507 HANNIBAL Patrick V1 11 01:25:12 ATHÉTIC CLUB SALÉEN M
32 583 NERE Joël V2 5 01:26:24 M
33 471 EDMOND Philippe V1 12 01:27:04 M
34 519 DELVINQUIERE Antoine SE 14 01:27:23 M
35 516 DE CHAVIGNY Pauline SE 3 01:27:35 TEAM MADINFORM F
36 421 LOUIS-MARIE-TÖLG Cécilia V1 1 01:27:50 GOLDEN STAR F
37 432 MADELENAT Jean-Charles V1 13 01:27:52 AIGLON DU LAMENTIN M
38 487 FILIN Jasmine SE 4 01:28:42 F
39 592 NAUD Stéphane SE 15 01:29:08 GOLDEN STAR M
40 459 GAUVIN Nicolas V1 14 01:29:10 GAUVIN M
41 409 MARRAUD DES GROTTES Fabrice V1 15 01:29:15 M
42 491 SAINT. LOUIS Gilbert V2 6 01:29:55 M
43 543 NIVORE Christian V2 7 01:30:00 FRMP M
44 527 LOUIS Jean-Marcel V2 8 01:30:11 M
45 596 EKOMIE Yohann SE 16 01:30:28 GOLDEN STAR M
46 461 RENEAUME Francois V2 9 01:31:43 TEAM SFE M
47 562 ARICAT Rose - Adčle SE 5 01:32:48 F
48 593 LUCIDARME Eric V2 10 01:33:47 M
49 538 SOURZAT Lucie SE 6 01:34:05 F
50 564 VICTORIN Gilles V2 11 01:35:01 M
51 555 HOLLANDE Melissa MI 1 01:35:05 Baroudeur F
52 441 ADENET Dino SE 17 01:35:06 M
53 493 GROS-DESORMEAUX-MORJON Sandrine V1 2 01:35:07 GOLDEN STAR F
54 489 JOLLY Matthieu V1 16 01:35:11 M
55 577 CRATERE Daniel V2 12 01:35:19 ASC SARA M
56 589 RESIDANT Didier V1 17 01:35:22 TCHIMBE RAID M
57 536 GERMANY Frederic V2 13 01:35:46 CLUB MANIKOU M
58 447 LAGUERRE Herve V2 14 01:36:17 LES BAROUDEURS M
59 540 ARCADE J.Philippe V2 15 01:36:19 M
60 475 SARGOUSSE Hugo SE 18 01:36:19 M
61 569 MAUGUEN Vincent SE 19 01:36:27 Marine Nationale M
62 556 HOLLANDE Thomas CA 2 01:36:44 Baroudeur M
63 472 EDMOND Sandra V1 3 01:36:46 F
64 402 CABRERA Honorine SE 7 01:36:47 CSLG TRAIL F
65 494 MASQUELIEZ Pauline SE 8 01:36:48 F
66 486 GRANGÉ Julien SE 20 01:36:49 M
67 515 RENCIOT Christele V1 4 01:37:03 GOLDENSTAR F
68 454 FONTAINE Frantz V2 16 01:37:06 TCHIMBE RAID M
69 590 TAUZIA Muriel V2 1 01:37:20 TCHIMBE RAID F
70 581 VIVIES Louis CA 3 01:37:48 M
71 582 VIVIES Martin CA 4 01:38:15 M
72 430 MAINGE Eddy V2 17 01:38:41 LES BAROUDEURS M
73 437 TSHULL Sebastien SE 21 01:38:44 M
74 557 GUSTO Philippe V2 18 01:39:34 LES BAROUDEURS M
75 428 CHARLES Francois V1 18 01:39:52 M
76 553 ROUBLIQUE Jules CA 5 01:39:53 Baroudeur M
77 587 GALLOT Giovanny V1 19 01:40:27 M
78 462 LAMBLE Marie V1 5 01:40:34 F
79 414 PICOT Magali SE 9 01:41:04 F
80 526 BEKARI Mouloud V1 20 01:41:15 M
81 595 MALNUR Christophe V3 1 01:41:26 CLUB MANIKOU/TEAM LAM M
82 404 THIVOLLE Amandine SE 10 01:41:38 F
83 509 LACLEF Olivier V1 21 01:41:38 M
84 594 ?DOSSARD #594 SE 22 01:42:50 M
85 565 TRINDADE Laura SE 11 01:43:14 AIGLON DU LAMENTIN F
86 559 DELPHIN Thierry V2 19 01:44:33 FJT CYCAS M
87 492 CLAROUS Thomas SE 23 01:45:11 M
88 579 BEUZE Lionel SE 24 01:45:12 M
89 449 RENE-CORAIL Rita V1 6 01:45:13 LES BAROUDEURS F
90 466 PHEBIDIAS Tania V2 2 01:45:51 AMCF F
91 568 CORRADINI Nicolas SE 25 01:46:08 Marine Nationale M
92 506 CRIQUET Stephanie V1 7 01:46:42 F
93 503 LANSADE Alexandre SE 26 01:46:51 CLUB SAM HORIZON 2000 M
94 418 RAPON Pascal SE 27 01:46:53 M
95 439 JUBENOT Carole V1 8 01:47:11 AVENIR PELEEN F
96 422 LOUIS-MARIE Christian V1 22 01:47:43 M
97 566 MICOUD Kevin SE 28 01:47:54 Marine Nationale M
98 547 DEROZE Karl ES 1 01:48:34 FRMP M
99 563 CARAZA Paul V2 20 01:48:44 M
100 551 CAUPENNES Cyril MI 1 01:49:40 Baroudeur M
101 468 MOREL Claudine V2 3 01:49:56 CSLG F
102 469 MOREL Cyrille V1 23 01:49:58 CSLG M
103 599 JEANNIN Severine V1 9 01:51:56 F
104 442 ARICAT Alfred V1 24 01:52:13 M
105 458 MELEZAN Kathy SE 12 01:52:22 F
106 473 LEMY Fontenoy V4 1 01:52:44 SAMARITAINE TEAM TRAIL M
107 508 MELEZAN Peggy SE 13 01:52:48 F
108 488 BARET Laetitia V1 10 01:53:44 F
109 490 THIMON Ely V2 21 01:53:45 VAUCLIN M
110 425 CAZENAVE Gilles SE 29 01:53:55 CLUB TCHIMBE RAID M
111 476 ROSTAN Mathilde ES 1 01:54:06 F
112 560 FORTUNE Isaac SE 30 01:54:11 FJT CYCAS M
113 570 RUIZ Diego ES 2 01:54:24 Marine Nationale M
114 514 CUPIT Celine SE 14 01:54:41 AMCF F
115 482 HENRY Claudette V1 11 01:54:56 F
116 544 LAYEUX Sophia V2 4 01:56:30 FRMP F
117 517 FONTAINE Catherine SE 15 01:56:37 F
118 501 MASSON Delphine V1 12 01:56:37 F
119 541 YOUNES Danielle V2 5 01:57:09 ACS F
120 452 MICHALON Joy SE 16 01:57:12 F
121 500 SURIC Sabrina V1 13 01:57:43 AMCF F
122 412 MONDONNEIX Veronique V3 1 01:57:58 F
123 496 CACLIN Mélissa SE 17 01:58:04 SAM HORIZON 2000 F
124 600 ROSIER Jean Marc V1 25 01:58:28 M
125 406 SAINTE-CROIX Bénédicte SE 18 01:58:55 F
126 545 VILLAGEOIS M. Louise V2 6 01:59:20 FRMP F
127 433 BAZIN Sophie V1 14 02:00:54 LES BAROUDERUS MARTINIQUE F
128 528 SAINT ZEBY Stella SE 19 02:01:59 F
129 542 SUAU Serge V2 22 02:02:20 M
130 530 VALONY Odile V1 15 02:03:19 AMCF F
131 539 BEAUDREUIL Nadine SE 20 02:03:35 CGOSH F
132 552 GALVA Liam MI 2 02:03:43 Baroudeur M
133 424 LOUISY Loic V1 26 02:03:45 M
134 585 COUDRAY Ophelie SE 21 02:04:38 F
135 480 LERIDER Myriam V1 16 02:04:48 STT F
136 456 DIDIER Delphine SE 22 02:05:31 LES PETITES BRUNES F
137 413 TOUCHAIN Erwan SE 31 02:05:32 TCHIMBERAID M
138 435 BOULAY Gabrielle V1 17 02:05:41 F
139 532 MEDLOCK Maeva SE 23 02:07:55 F
140 598 LEBEL Christelle SE 24 02:08:14 F
141 431 COURJOL Guy V3 2 02:08:16 M
142 535 ANGELIE Beatrice V1 18 02:10:11 F
143 450 JULIUS Karine SE 25 02:10:42 MANIKOU F
144 403 GASCHEN Géraldine V1 19 02:11:00 SURCOUF DIVE F
145 571 BLAISON Lionel V1 27 02:11:00 Marine Nationale M
146 420 GAUTHERON Bérengčre SE 26 02:11:05 LE COLONIAL F
147 407 ZIRNHELT Agnes V1 20 02:11:05 F
148 423 LE SAUX Regis V1 28 02:13:27 M
149 572 MOALIGOU Marie-Aude V1 21 02:13:28 Farine Nationale F
150 448 METZ Stephan V1 29 02:13:28 M
151 485 LOUIS-MARIE Francine V1 22 02:13:34 TCHIMBE RAID F
152 429 SAINT-LOUIS-AUGUSTIN Irčne V3 2 02:13:43 CLUB MANIKOU F
153 436 BOULAY Pauline SE 27 02:15:06 F
154 446 DE TESSIERES Marie Sophie V1 23 02:15:57 F
155 453 LEQUERTIER Marianne SE 28 02:16:02 F
156 467 EUGENIE Cathy V2 7 02:16:36 GOLDEN STAR F
157 497 COCHEREAU Sarah V1 24 02:16:41 F
158 513 LE MEUR Beatrice V1 25 02:16:41 F
159 445 DE TESSIERES Aymeric V1 30 02:16:48 M
160 477 EDOUARD Clara SE 29 02:19:13 F
161 474 CARNIER Laura SE 30 02:19:13 F
162 548 GARCON Annaelle CA 1 02:22:51 Baroudeur F
163 451 REINE Sandrine V1 26 02:24:12 AIGLONS DU LAMENTIN F
164 534 JEREMIE Tony V1 31 02:25:04 SAM HORIZON 2000 M
165 533 CINNA Mireille V1 27 02:25:04 SAM HORIZON 2000 F
166 523 ALPHONSE Christine SE 31 02:25:10 F
167 522 ALPHONSE Valerie SE 32 02:25:10 F
168 504 BELLIARD Claudine SE 33 02:26:51 BELLIARD F
169 505 PIERRE LOUIS Ludovic SE 32 02:26:51 M
170 464 PADRA Francis V2 23 02:30:10 M
171 463 PADRA Lyvia V1 28 02:31:28 F
172 455 LALLEMENT Beatrice V2 8 02:37:05 TCHIMBE RAID F
173 524 LAUPA Jean Francois V2 24 02:37:13 AS RFO M
174 584 MARIE-SAINTE David V1 32 02:37:15 FRMP M
175 440 DESERT Yvon V2 25 02:45:18 M
176 426 GRANDIN Marie-Claude V2 9 02:54:24 CLUB MANIKOU F
177 417 RAKOTONANDRASANA Karine V1 29 03:32:21 F
178 478 POLIMIS Constance V3 3 03:32:51 SILVER STAR F
179 416 BENMOUSSA Nancie V1 30 03:34:53 F